createdAt,value
2022-08-01T00:00:19.864Z,100227.70
2022-08-01T00:05:47.644Z,100226.45
2022-08-01T00:10:53.449Z,100225.30
2022-08-01T00:16:00.291Z,100225.26
2022-08-01T00:21:06.733Z,100221.70
2022-08-01T00:26:13.128Z,100221.15
2022-08-01T00:31:19.007Z,100218.96
2022-08-01T00:36:27.320Z,100215.70
2022-08-01T00:41:33.228Z,100208.80
2022-08-01T00:46:39.159Z,100204.08
2022-08-01T00:51:46.245Z,100205.91
2022-08-01T00:56:52.454Z,100207.50
2022-08-01T01:01:58.236Z,100211.02
2022-08-01T01:07:11.669Z,100215.36
2022-08-01T01:12:23.318Z,100215.41
2022-08-01T01:17:51.068Z,100212.20
2022-08-01T01:23:08.438Z,100212.31
2022-08-01T01:28:21.434Z,100211.88
2022-08-01T01:33:32.231Z,100210.98
2022-08-01T01:38:43.040Z,100206.70
2022-08-01T01:43:51.633Z,100209.91
2022-08-01T01:48:59.253Z,100207.98
2022-08-01T01:54:08.075Z,100208.22
2022-08-01T01:59:14.016Z,100202.40
2022-08-01T02:04:21.166Z,100207.97
2022-08-01T02:09:30.237Z,100204.64
2022-08-01T02:14:38.321Z,100198.20
2022-08-01T02:19:44.733Z,100197.26
2022-08-01T02:24:56.160Z,100193.92
2022-08-01T02:30:06.202Z,100196.94
2022-08-01T02:35:23.789Z,100200.05
2022-08-01T02:40:33.909Z,100202.11
2022-08-01T02:45:44.541Z,100211.10
2022-08-01T02:50:52.595Z,100211.63
2022-08-01T02:56:00.330Z,100215.10
2022-08-01T03:01:08.857Z,100216.20
2022-08-01T03:06:16.369Z,100217.59
2022-08-01T03:11:24.325Z,100224.04
2022-08-01T03:16:32.534Z,100226.86
2022-08-01T03:21:40.213Z,100222.70
2022-08-01T03:26:47.218Z,100222.68
2022-08-01T03:31:54.212Z,100216.23
2022-08-01T03:37:08.218Z,100220.13
2022-08-01T03:42:20.081Z,100221.63
2022-08-01T03:47:31.802Z,100229.05
2022-08-01T03:52:42.753Z,100233.95
2022-08-01T03:57:50.356Z,100239.25
2022-08-01T04:02:56.871Z,100238.80
2022-08-01T04:08:03.384Z,100248.45
2022-08-01T04:13:09.355Z,100250.95
2022-08-01T04:18:15.370Z,100258.70
2022-08-01T04:23:28.611Z,100256.30
2022-08-01T04:28:38.073Z,100263.15
2022-08-01T04:33:48.862Z,100262.17
2022-08-01T04:39:00.933Z,100263.64
2022-08-01T04:44:07.958Z,100270.67
2022-08-01T04:49:17.507Z,100276.36
2022-08-01T04:54:23.749Z,100272.48
2022-08-01T04:59:42.381Z,100272.92
2022-08-01T05:04:48.650Z,100275.17
2022-08-01T05:09:54.898Z,100278.96
2022-08-01T05:15:00.970Z,100283.80
2022-08-01T05:20:08.675Z,100284.33
2022-08-01T05:25:14.671Z,100286.17
2022-08-01T05:30:26.795Z,100295.66
2022-08-01T05:35:47.811Z,100295.09
2022-08-01T05:40:55.154Z,100303.48
2022-08-01T05:46:02.169Z,100302.04
2022-08-01T05:51:08.255Z,100304.16
2022-08-01T05:56:14.626Z,100303.98
2022-08-01T06:01:21.183Z,100311.48
2022-08-01T06:06:27.420Z,100318.23
2022-08-01T06:11:33.530Z,100322.11
2022-08-01T06:16:40.380Z,100318.85
2022-08-01T06:21:46.276Z,100319.83
2022-08-01T06:26:52.238Z,100320.67
2022-08-01T06:31:59.502Z,100317.50
2022-08-01T06:37:06.847Z,100317.96
2022-08-01T06:42:13.069Z,100322.21
2022-08-01T06:47:19.154Z,100320.66
2022-08-01T06:52:26.921Z,100320.86
2022-08-01T06:57:34.383Z,100324.77
2022-08-01T07:02:40.509Z,100323.20
2022-08-01T07:07:46.918Z,100321.74
2022-08-01T07:12:53.104Z,100320.31
2022-08-01T07:18:02.514Z,100322.33
2022-08-01T07:23:08.764Z,100324.16
2022-08-01T07:28:19.289Z,100315.77
2022-08-01T07:33:23.757Z,100322.81
2022-08-01T07:38:29.937Z,100323.55
2022-08-01T07:43:34.427Z,100316.16
2022-08-01T07:48:40.391Z,100314.20
2022-08-01T07:53:44.795Z,100317.14
2022-08-01T07:58:50.814Z,100311.02
2022-08-01T08:03:57.050Z,100308.84
2022-08-01T08:09:02.976Z,100311.15
2022-08-01T08:14:09.234Z,100312.70
2022-08-01T08:19:15.433Z,100311.59
2022-08-01T08:24:26.230Z,100318.17
2022-08-01T08:29:33.831Z,100318.54
2022-08-01T08:34:41.857Z,100314.29
2022-08-01T08:39:48.424Z,100314.04
2022-08-01T08:44:56.379Z,100322.13
2022-08-01T08:50:04.872Z,100327.83
2022-08-01T08:55:12.716Z,100334.04
2022-08-01T09:00:19.974Z,100341.80
2022-08-01T09:05:38.887Z,100344.50
2022-08-01T09:10:45.555Z,100341.66
2022-08-01T09:15:56.654Z,100347.05
2022-08-01T09:21:13.636Z,100350.30
2022-08-01T09:26:21.199Z,100355.08
2022-08-01T09:31:37.986Z,100352.08
2022-08-01T09:36:54.303Z,100359.85
2022-08-01T09:42:02.265Z,100360.80
2022-08-01T09:47:09.752Z,100359.41
2022-08-01T09:52:18.122Z,100353.23
2022-08-01T09:57:24.571Z,100357.27
2022-08-01T10:02:34.147Z,100359.82
2022-08-01T10:07:58.247Z,100352.37
2022-08-01T10:13:09.957Z,100351.90
2022-08-01T10:18:26.071Z,100352.32
2022-08-01T10:23:40.184Z,100352.28
2022-08-01T10:28:51.164Z,100348.36
2022-08-01T10:34:01.333Z,100341.04
2022-08-01T10:39:09.255Z,100342.09
2022-08-01T10:44:17.149Z,100346.17
2022-08-01T10:49:27.860Z,100345.67
2022-08-01T10:54:52.658Z,100345.39
2022-08-01T11:00:02.108Z,100344.74
2022-08-01T11:05:14.449Z,100338.64
2022-08-01T11:10:26.560Z,100336.19
2022-08-01T11:15:32.905Z,100334.00
2022-08-01T11:21:56.114Z,100333.40
2022-08-01T11:26:28.936Z,100331.04
2022-08-01T11:31:36.985Z,100327.80
2022-08-01T11:36:59.468Z,100339.20
2022-08-01T11:42:21.050Z,100338.46
2022-08-01T11:47:50.191Z,100332.33
2022-08-01T11:53:02.663Z,100329.00
2022-08-01T11:58:22.447Z,100328.93
2022-08-01T12:03:36.737Z,100329.84
2022-08-01T12:08:46.083Z,100337.34
2022-08-01T12:13:53.227Z,100333.66
2022-08-01T12:19:03.934Z,100321.95
2022-08-01T12:24:10.959Z,100321.33
2022-08-01T12:29:34.184Z,100323.09
2022-08-01T12:34:40.502Z,100320.06
2022-08-01T12:39:46.911Z,100319.80
2022-08-01T12:44:55.389Z,100314.77
2022-08-01T12:50:03.325Z,100318.15
2022-08-01T12:55:13.342Z,100314.04
2022-08-01T13:00:25.060Z,100312.42
2022-08-01T13:05:44.904Z,100307.41
2022-08-01T13:10:51.906Z,100311.07
2022-08-01T13:16:08.727Z,100304.88
2022-08-01T13:21:23.539Z,100299.65
2022-08-01T13:26:43.329Z,100303.33
2022-08-01T13:31:50.108Z,100302.72
2022-08-01T13:36:56.106Z,100308.07
2022-08-01T13:42:06.561Z,100307.17
2022-08-01T13:47:15.150Z,100308.47
2022-08-01T13:52:25.261Z,100304.60
2022-08-01T13:57:37.014Z,100303.20
2022-08-01T14:02:43.281Z,100306.61
2022-08-01T14:07:49.560Z,100314.46
2022-08-01T14:12:56.882Z,100314.29
2022-08-01T14:18:03.383Z,100318.35
2022-08-01T14:23:12.358Z,100316.09
2022-08-01T14:28:18.532Z,100324.36
2022-08-01T14:33:24.771Z,100330.57
2022-08-01T14:38:33.429Z,100332.95
2022-08-01T14:43:39.769Z,100333.16
2022-08-01T14:48:45.998Z,100333.69
2022-08-01T14:53:53.316Z,100333.11
2022-08-01T14:58:59.793Z,100331.89
2022-08-01T15:04:05.878Z,100336.32
2022-08-01T15:09:16.421Z,100338.13
2022-08-01T15:14:41.309Z,100342.53
2022-08-01T15:19:47.166Z,100342.46
2022-08-01T15:24:57.494Z,100345.82
2022-08-01T15:30:04.288Z,100344.70
2022-08-01T15:35:13.605Z,100342.55
2022-08-01T15:40:19.655Z,100343.34
2022-08-01T15:50:53.246Z,100342.76
2022-08-01T15:55:59.837Z,100338.95
2022-08-01T16:01:05.819Z,100340.83
2022-08-01T16:06:11.655Z,100343.45
2022-08-01T16:11:17.965Z,100342.09
2022-08-01T16:16:24.160Z,100343.11
2022-08-01T16:21:30.055Z,100346.34
2022-08-01T16:26:35.985Z,100347.58
2022-08-01T16:31:50.616Z,100358.33
2022-08-01T16:37:09.914Z,100361.98
2022-08-01T16:42:18.077Z,100360.75
2022-08-01T16:47:24.524Z,100359.45
2022-08-01T16:52:31.777Z,100364.36
2022-08-01T16:57:38.550Z,100363.92
2022-08-01T17:02:45.747Z,100365.34
2022-08-01T17:07:51.733Z,100365.05
2022-08-01T17:12:57.646Z,100373.16
2022-08-01T17:18:04.953Z,100371.42
2022-08-01T17:23:10.915Z,100369.29
2022-08-01T17:28:16.745Z,100376.72
2022-08-01T17:33:22.830Z,100381.08
2022-08-01T17:38:28.842Z,100383.98
2022-08-01T17:43:34.840Z,100385.55
2022-08-01T17:48:40.849Z,100388.11
2022-08-01T17:53:56.128Z,100391.17
2022-08-01T17:59:03.842Z,100392.78
2022-08-01T18:04:13.622Z,100396.67
2022-08-01T18:09:20.080Z,100397.64
2022-08-01T18:14:32.626Z,100398.98
2022-08-01T18:19:47.008Z,100399.33
2022-08-01T18:24:55.061Z,100402.80
2022-08-01T18:30:01.411Z,100400.95
2022-08-01T18:35:11.999Z,100406.98
2022-08-01T18:40:23.005Z,100411.29
2022-08-01T18:45:29.208Z,100413.86
2022-08-01T18:50:35.357Z,100420.02
2022-08-01T18:55:43.202Z,100427.23
2022-08-01T19:00:49.275Z,100440.45
2022-08-01T19:05:55.285Z,100441.35
2022-08-01T19:11:02.348Z,100443.59
2022-08-01T19:16:09.247Z,100450.77
2022-08-01T19:21:18.745Z,100448.84
2022-08-01T19:26:28.313Z,100452.74
2022-08-01T19:31:34.323Z,100456.57
2022-08-01T19:36:40.923Z,100454.81
2022-08-01T19:41:48.297Z,100462.27
2022-08-01T19:46:54.998Z,100466.88
2022-08-01T19:52:03.588Z,100466.13
2022-08-01T19:57:12.818Z,100460.39
2022-08-01T20:02:22.664Z,100458.90
2022-08-01T20:07:30.539Z,100459.70
2022-08-01T20:12:38.510Z,100466.58
2022-08-01T20:17:45.600Z,100464.14
2022-08-01T20:22:56.060Z,100464.77
2022-08-01T20:28:00.819Z,100466.66
2022-08-01T20:33:07.914Z,100468.34
2022-08-01T20:38:16.864Z,100468.33
2022-08-01T20:43:26.112Z,100470.33
2022-08-01T20:48:32.807Z,100469.06
2022-08-01T20:53:42.683Z,100465.06
2022-08-01T20:59:08.828Z,100467.46
2022-08-01T21:04:47.016Z,100468.77
2022-08-01T21:10:01.738Z,100476.55
2022-08-01T21:15:12.933Z,100477.29
2022-08-01T21:20:22.451Z,100479.91
2022-08-01T21:25:34.270Z,100478.45
2022-08-01T21:30:41.736Z,100483.00
2022-08-01T21:35:49.990Z,100480.63
2022-08-01T21:40:56.766Z,100485.54
2022-08-01T21:46:03.545Z,100483.98
2022-08-01T21:51:23.933Z,100488.22
2022-08-01T21:56:44.459Z,100487.95
2022-08-01T22:02:00.119Z,100489.33
2022-08-01T22:07:09.541Z,100480.48
2022-08-01T22:12:18.474Z,100481.20
2022-08-01T22:17:25.877Z,100484.41
2022-08-01T22:22:50.623Z,100484.36
2022-08-01T22:28:03.070Z,100484.03
2022-08-01T22:33:17.016Z,100488.31
2022-08-01T22:38:24.686Z,100493.80
2022-08-01T22:43:40.280Z,100498.38
2022-08-01T22:48:50.642Z,100500.48
2022-08-01T22:54:03.989Z,100503.80
2022-08-01T22:59:14.669Z,100505.25
2022-08-01T23:04:33.816Z,100504.94
2022-08-01T23:09:54.446Z,100507.39
2022-08-01T23:15:02.518Z,100511.45
2022-08-01T23:20:10.090Z,100509.70
2022-08-01T23:25:16.993Z,100514.21
2022-08-01T23:30:25.912Z,100512.73
2022-08-01T23:35:38.168Z,100518.18
2022-08-01T23:40:44.923Z,100517.88
2022-08-01T23:46:04.510Z,100514.65
2022-08-01T23:51:17.273Z,100515.21
2022-08-01T23:56:30.101Z,100514.66
